^^
Meteo Knjazevac Station Historical Data
Daily Summary for March 5, 2021 Units:  English    Metric   Both
Daily Weekly Monthly Yearly Custom
  High: Low: Average:
Temperature: 91.4 °F 61 °F 72.7 °F
Dew Point: 70.9 °F 56.1 °F 62 °F
Humidity: 85% 48% 71%
Wind Speed: 9mph 0mph 1.9mph
Wind Gust: 13mph - -
Wind- - South
Pressure: 30.00 in 29.77 in -
Precipitation: 0.00 in    
Historical Graphs
 
 
Tabular Data for March 5, 2021
Time Temperature Dew Point Pressure Wind Wind Speed Wind Gust Humidity Rainfall Rate (Hourly) solar Conditions
00:00 68.7 °F 59.7 °F 30.00 in NNW 1 mph 2 mph 73% 0.00 in 0 W/m2
00:10 68.5 °F 59.9 °F 30.00 in WNW 1 mph 3 mph 74% 0.00 in 0 W/m2
00:20 67.8 °F 59.2 °F 30.00 in WSW 2 mph 3 mph 74% 0.00 in 0 W/m2
00:30 67.5 °F 58.5 °F 30.00 in West 1 mph 3 mph 73% 0.00 in 0 W/m2
00:40 67.1 °F 58.5 °F 29.99 in WNW 1 mph 2 mph 74% 0.00 in 0 W/m2
00:50 67.1 °F 58.5 °F 29.99 in West 1 mph 2 mph 74% 0.00 in 0 W/m2
01:00 66.9 °F 59.5 °F 29.99 in Calm   2 mph 77% 0.00 in 0 W/m2
01:10 66.7 °F 58.6 °F 29.99 in West 1 mph 3 mph 75% 0.00 in 0 W/m2
01:20 66.4 °F 58.9 °F 29.99 in Calm   2 mph 77% 0.00 in 0 W/m2
01:30 66 °F 58.6 °F 29.99 in Calm   2 mph 77% 0.00 in 0 W/m2
01:40 65.8 °F 58.4 °F 29.99 in NNW 1 mph 3 mph 77% 0.00 in 0 W/m2
01:50 65.8 °F 58.7 °F 29.99 in Calm   2 mph 78% 0.00 in 0 W/m2
02:00 65.5 °F 58.4 °F 29.99 in NNW 1 mph 2 mph 78% 0.00 in 0 W/m2
02:10 65.1 °F 58.4 °F 29.99 in Calm   2 mph 79% 0.00 in 0 W/m2
02:20 64.6 °F 57.9 °F 29.98 in Calm   2 mph 79% 0.00 in 0 W/m2
02:30 64.2 °F 57.9 °F 29.98 in Calm   2 mph 80% 0.00 in 0 W/m2
02:40 64 °F 57.7 °F 29.98 in WNW 1 mph 2 mph 80% 0.00 in 0 W/m2
02:50 63.6 °F 57.3 °F 29.98 in WSW 1 mph 2 mph 80% 0.00 in 0 W/m2
03:00 63.1 °F 56.9 °F 29.98 in WSW 1 mph 2 mph 80% 0.00 in 0 W/m2
03:10 62.8 °F 56.5 °F 29.98 in WNW 1 mph 4 mph 80% 0.00 in 0 W/m2
03:20 62.8 °F 56.5 °F 29.97 in WNW 1 mph 3 mph 80% 0.00 in 0 W/m2
03:30 62.6 °F 56.3 °F 29.97 in West 3 mph 4 mph 80% 0.00 in 0 W/m2
03:40 62.4 °F 56.2 °F 29.97 in Calm   4 mph 80% 0.00 in 0 W/m2
03:50 62.2 °F 56.3 °F 29.97 in West 1 mph 2 mph 81% 0.00 in 0 W/m2
04:00 61.9 °F 56.7 °F 29.97 in WNW 1 mph 2 mph 83% 0.00 in 0 W/m2
04:10 61.6 °F 56.4 °F 29.96 in Calm   2 mph 83% 0.00 in 0 W/m2
04:20 61.3 °F 56.1 °F 29.96 in Calm   1 mph 83% 0.00 in 0 W/m2
04:30 61.3 °F 56.5 °F 29.96 in Calm   2 mph 84% 0.00 in 0 W/m2
04:40 61.2 °F 56.3 °F 29.96 in WNW 1 mph 2 mph 84% 0.00 in 0 W/m2
04:50 61.2 °F 56.3 °F 29.96 in WNW 1 mph 2 mph 84% 0.00 in 0 W/m2
05:00 61 °F 56.1 °F 29.96 in Calm   4 mph 84% 0.00 in 0 W/m2
05:10 61 °F 56.1 °F 29.96 in Calm   2 mph 84% 0.00 in 0 W/m2
05:20 61 °F 56.1 °F 29.96 in Calm   2 mph 84% 0.00 in 0 W/m2
05:30 61 °F 56.4 °F 29.96 in Calm   2 mph 85% 0.00 in 4 W/m2
05:40 61 °F 56.4 °F 29.96 in Calm   2 mph 85% 0.00 in 7 W/m2
05:50 61.2 °F 56.6 °F 29.95 in North 1 mph 2 mph 85% 0.00 in 13 W/m2
06:00 61.3 °F 56.8 °F 29.95 in NNE 1 mph 3 mph 85% 0.00 in 22 W/m2
06:10 61.6 °F 57 °F 29.95 in North 1 mph 2 mph 85% 0.00 in 30 W/m2
06:20 61.5 °F 57 °F 29.95 in West 1 mph 2 mph 85% 0.00 in 38 W/m2
06:30 61.7 °F 57.1 °F 29.95 in North 1 mph 2 mph 85% 0.00 in 48 W/m2
06:40 61.9 °F 57 °F 29.95 in Calm   2 mph 84% 0.00 in 87 W/m2
06:50 62 °F 57.1 °F 29.95 in WNW 1 mph 2 mph 84% 0.00 in 100 W/m2
07:00 62.2 °F 57.3 °F 29.94 in Calm   2 mph 84% 0.00 in 147 W/m2
07:10 62.4 °F 57.5 °F 29.95 in NNW 1 mph 2 mph 84% 0.00 in 188 W/m2
07:20 63 °F 58.4 °F 29.94 in NNE 1 mph 4 mph 85% 0.00 in 221 W/m2
07:30 63.6 °F 58.7 °F 29.94 in NNE 3 mph 5 mph 84% 0.00 in 256 W/m2
07:40 64 °F 58.8 °F 29.94 in Calm   3 mph 83% 0.00 in 284 W/m2
07:50 64.5 °F 58.5 °F 29.93 in NE 1 mph 4 mph 81% 0.00 in 319 W/m2
08:00 65.1 °F 59.5 °F 29.93 in Calm   2 mph 82% 0.00 in 371 W/m2
08:10 65.8 °F 59.5 °F 29.93 in WNW 1 mph 4 mph 80% 0.00 in 414 W/m2
08:20 66.6 °F 59.9 °F 29.93 in North 1 mph 4 mph 79% 0.00 in 414 W/m2
08:30 67.4 °F 60.3 °F 29.93 in Calm   6 mph 78% 0.00 in 459 W/m2
08:40 68.2 °F 61.1 °F 29.92 in East 1 mph 4 mph 78% 0.00 in 494 W/m2
08:50 69.2 °F 61.7 °F 29.92 in SW 2 mph 3 mph 77% 0.00 in 526 W/m2
09:00 70.2 °F 61.9 °F 29.91 in WSW 1 mph 3 mph 75% 0.00 in 559 W/m2
09:10 72.2 °F 63.1 °F 29.91 in Calm   3 mph 73% 0.00 in 593 W/m2
09:20 73.9 °F 64.3 °F 29.90 in WSW 1 mph 2 mph 72% 0.00 in 624 W/m2
09:30 75.7 °F 65.3 °F 29.90 in South 1 mph 3 mph 70% 0.00 in 642 W/m2
09:40 76.8 °F 65.5 °F 29.89 in West 1 mph 5 mph 68% 0.00 in 679 W/m2
09:50 78.2 °F 66.3 °F 29.89 in West 5 mph 6 mph 67% 0.00 in 716 W/m2
10:00 79.8 °F 67.4 °F 29.89 in WNW 2 mph 5 mph 66% 0.00 in 745 W/m2
10:10 81.2 °F 67.9 °F 29.88 in WNW 1 mph 5 mph 64% 0.00 in 766 W/m2
10:20 82.7 °F 68.8 °F 29.88 in West 2 mph 5 mph 63% 0.00 in 787 W/m2
10:30 84 °F 69.1 °F 29.88 in WSW 2 mph 3 mph 61% 0.00 in 806 W/m2
10:40 86.5 °F 70.9 °F 29.87 in NW 2 mph 5 mph 60% 0.00 in 824 W/m2
10:50 88.5 °F 69.2 °F 29.87 in SE 7 mph 10 mph 53% 0.00 in 630 W/m2
11:00 90 °F 68.2 °F 29.86 in SE 7 mph 12 mph 49% 0.00 in 855 W/m2
11:10 91 °F 68.5 °F 29.85 in SE 7 mph 13 mph 48% 0.00 in 849 W/m2
11:20 91.4 °F 69 °F 29.85 in SE 6 mph 13 mph 48% 0.00 in 498 W/m2
11:30 91.1 °F 69.3 °F 29.85 in ESE 5 mph 13 mph 49% 0.00 in 404 W/m2
11:40 91 °F 69.2 °F 29.85 in SE 5 mph 8 mph 49% 0.00 in 382 W/m2
11:50 91 °F 69.8 °F 29.85 in SSE 2 mph 7 mph 50% 0.00 in 442 W/m2
12:00 91.2 °F 70 °F 29.85 in SE 2 mph 5 mph 50% 0.00 in 457 W/m2
12:10 91 °F 68.6 °F 29.84 in SSE 6 mph 9 mph 48% 0.00 in 258 W/m2
12:20 90.8 °F 69.6 °F 29.84 in ESE 5 mph 8 mph 50% 0.00 in 210 W/m2
12:30 90.5 °F 69.3 °F 29.83 in ESE 5 mph 7 mph 50% 0.00 in 225 W/m2
12:40 90.3 °F 68.6 °F 29.83 in ESE 3 mph 8 mph 49% 0.00 in 210 W/m2
12:50 90 °F 68.2 °F 29.83 in ENE 3 mph 7 mph 49% 0.00 in 160 W/m2
13:00 88.9 °F 67.8 °F 29.82 in NNE 8 mph 13 mph 50% 0.00 in 141 W/m2
13:10 87.5 °F 68.3 °F 29.83 in NNE 5 mph 12 mph 53% 0.00 in 107 W/m2
13:20 86.2 °F 67 °F 29.82 in NNE 7 mph 13 mph 53% 0.00 in 87 W/m2
13:30 85.3 °F 66.8 °F 29.82 in NNE 9 mph 13 mph 54% 0.00 in 131 W/m2
13:40 84.7 °F 67.8 °F 29.81 in NNE 2 mph 10 mph 57% 0.00 in 149 W/m2
13:50 84.1 °F 66.2 °F 29.81 in NNE 7 mph 13 mph 55% 0.00 in 148 W/m2
14:00 83.8 °F 67.5 °F 29.81 in North 5 mph 8 mph 58% 0.00 in 272 W/m2
14:10 84 °F 67.7 °F 29.81 in North 3 mph 5 mph 58% 0.00 in 311 W/m2
14:20 84.2 °F 68.3 °F 29.81 in NE 2 mph 6 mph 59% 0.00 in 437 W/m2
14:30 84.6 °F 68.2 °F 29.80 in NE 1 mph 7 mph 58% 0.00 in 517 W/m2
14:40 85 °F 68.1 °F 29.79 in NNE 2 mph 5 mph 57% 0.00 in 369 W/m2
14:50 85.3 °F 68.3 °F 29.79 in NNW 1 mph 4 mph 57% 0.00 in 439 W/m2
15:00 85.9 °F 68.9 °F 29.78 in East 1 mph 3 mph 57% 0.00 in 390 W/m2
15:10 86.4 °F 69.3 °F 29.77 in SW 3 mph 5 mph 57% 0.00 in 324 W/m2
Knjazevac, Serbia
Compliments of Weather Underground - 2 mb